Aérodrome :
LOGIN :

S'inscrire | Disclaimer

   EN    FR    IT 

 










Légende :    VFR   VFR Marginal   IFR   IFR Intensif   IFR Très Intensif
Visi : 
Plafond : 
>= 8 km
>= 3000ft
5 à 8 km
1000 à 3000 ft
1500m à 5 km
500 à 1000 ft
800 à 1500m
200 à 500 ft
< 800m
< 200 ft
Symboles :   Orages  Brouillard  Fortes neiges  Fortes précipitations  Vent > 20 kt
SIGMETs :   Divers  Orages  Givrage  Turbulence  Onde Orograph.  Cendres Volcan.







- Altitude de l'aérodrome : 53 ft
- Code IATA : HAM


EDDH - Hamburg

DERNIER METAR :
  • 101820Z 29014KT 9999 BKN028 06/02 Q1011 TEMPO 28015G30KT

METARs EXPIRÉS :
  • 101750Z 28013KT 250V310 9999 BKN032 05/02 Q1011 TEMPO 28015G30KT
  • 101720Z 29015KT 260V320 9999 FEW034 06/02 Q1011 TEMPO 28015G30KT
  • 101650Z 28013KT 9999 SCT035 05/02 Q1011 TEMPO 28015G30KT
  • 101620Z 28011KT CAVOK 05/02 Q1011 TEMPO 28015G30KT
  • 101550Z 28009KT 9999 FEW023CB 04/01 Q1010 TEMPO 28015G30KT
  • 101520Z 28013KT 250V310 9999 -SHRA SCT017CB SCT026 05/01 Q1011 TEMPO 28015G30KT

TAF TAF EDDH
Valide du 10 à 18h jusqu'au 12 à 00h UTC


101700Z 1018/1124 29010KT 9999 SCT030
PROB30
TEMPO 1018/1021 30015G25KT SHRA BKN014CB
BECMG 1113/1116 33005KT
TEMPO 1117/1124 BKN012
Pas de NOTAMs connus pour ce terrain.



MET'MAP, la Météo Aéronautique d'un coup d'oeil ! - Copyright ORBIFLY Décembre 2007 - Disclaimer

ORBIFLY MET'MAP TEAM :

Programmation & Développement : Alexandra Zaïnal
Conception & Développement : Baudouin d'Aumeries
Co-Programmation & Développement : Marc-Olivier Méhu
Soutien technique & logistique : Manuel Goepfert

Contact : metmap@orbifly.com




SOURCES & CREDITS :

   NOAA